Terminal Aerodrome Forecast
Issued by NWS

Home | Current Version | Previous Version | Text Only | Print | Product List | Glossary On
Versions: 1 2 3 4 5 6 7 8 9 10 11 12 13 14 15 16
000
FTUS44 KLZK 010800 AAA
TAFHRO
TAF AMD
KHRO 010832Z 0109/0206 16009G16KT 6SM -SHRA BR SCT020 OVC050
      WS020/21045KT
      TEMPO 0109/0112 3SM SHRA BR OVC020
     FM011600 29012G20KT P6SM VCSH BKN015 OVC035
     FM012000 30014G22KT P6SM BKN025=

USA.gov is the U.S. government's official web portal to all federal, state and local government web resources and services.